sensor_id;sensor_type;location;lat;lon;timestamp;P1;P2;P0
72918;PMS7003;68407;55.694;26.994;2024-01-15T00:03:24;3.2;1.8;1.6
72918;PMS7003;68407;55.694;26.994;2024-01-15T00:07:52;4;2.4;2
72918;PMS7003;68407;55.694;26.994;2024-01-15T00:23:24;1.4;1.2;1.2
72918;PMS7003;68407;55.694;26.994;2024-01-15T00:28:00;2.4;2;1.6
72918;PMS7003;68407;55.694;26.994;2024-01-15T00:33:08;2.6;2;1.6
72918;PMS7003;68407;55.694;26.994;2024-01-15T00:37:34;3.6;1.8;1.4
72918;PMS7003;68407;55.694;26.994;2024-01-15T00:42:42;2;1.8;1.6
72918;PMS7003;68407;55.694;26.994;2024-01-15T00:47:42;3;1.6;1.4
72918;PMS7003;68407;55.694;26.994;2024-01-15T00:52:42;2.8;2;1.6
72918;PMS7003;68407;55.694;26.994;2024-01-15T00:58:10;2.2;2;1.2
72918;PMS7003;68407;55.694;26.994;2024-01-15T01:03:10;1.4;1.4;0.8
72918;PMS7003;68407;55.694;26.994;2024-01-15T01:08:22;1.4;1.2;1
72918;PMS7003;68407;55.694;26.994;2024-01-15T01:12:50;1.6;1.4;1
72918;PMS7003;68407;55.694;26.994;2024-01-15T01:17:48;2.3;1.3;1.3
72918;PMS7003;68407;55.694;26.994;2024-01-15T01:23:24;2.2;1.2;1.2
72918;PMS7003;68407;55.694;26.994;2024-01-15T01:28:14;1.8;1.2;1
72918;PMS7003;68407;55.694;26.994;2024-01-15T01:32:34;1.6;1.2;0.6
72918;PMS7003;68407;55.694;26.994;2024-01-15T01:38:04;1.6;1.4;0.8
72918;PMS7003;68407;55.694;26.994;2024-01-15T01:42:52;1.2;1.2;1.2
72918;PMS7003;68407;55.694;26.994;2024-01-15T01:48:25;1.8;1.6;1
72918;PMS7003;68407;55.694;26.994;2024-01-15T01:52:59;2.8;1.8;1.8
72918;PMS7003;68407;55.694;26.994;2024-01-15T01:58:24;2.4;1.8;1.4
72918;PMS7003;68407;55.694;26.994;2024-01-15T02:02:34;2.2;1.6;1.2
72918;PMS7003;68407;55.694;26.994;2024-01-15T02:08:10;2.6;1.8;1.4
72918;PMS7003;68407;55.694;26.994;2024-01-15T02:12:34;3.2;1.8;1.4
72918;PMS7003;68407;55.694;26.994;2024-01-15T02:17:58;2.3;1.3;1.3
72918;PMS7003;68407;55.694;26.994;2024-01-15T02:22:34;2.2;1.2;0.8
72918;PMS7003;68407;55.694;26.994;2024-01-15T02:27:50;3.4;2.2;2
72918;PMS7003;68407;55.694;26.994;2024-01-15T02:32:34;2.8;2;1.8
72918;PMS7003;68407;55.694;26.994;2024-01-15T02:37:42;3.2;2;1.6
72918;PMS7003;68407;55.694;26.994;2024-01-15T02:43:20;2.8;2.4;1.2
72918;PMS7003;68407;55.694;26.994;2024-01-15T02:47:50;4.4;2.4;2
72918;PMS7003;68407;55.694;26.994;2024-01-15T02:53:24;5;3.2;2.6
72918;PMS7003;68407;55.694;26.994;2024-01-15T02:58:00;3.4;2.6;2.2
72918;PMS7003;68407;55.694;26.994;2024-01-15T03:03:14;4;2.6;2.2
72918;PMS7003;68407;55.694;26.994;2024-01-15T03:07:35;3.6;2.8;2
72918;PMS7003;68407;55.694;26.994;2024-01-15T03:12:44;3.6;2.8;2.2
72918;PMS7003;68407;55.694;26.994;2024-01-15T03:18:25;3;2.8;1.8
72918;PMS7003;68407;55.694;26.994;2024-01-15T03:23:24;2.8;2.4;2
72918;PMS7003;68407;55.694;26.994;2024-01-15T03:27:53;3.4;3.2;2.2
72918;PMS7003;68407;55.694;26.994;2024-01-15T03:33:22;3.6;2;1.8
72918;PMS7003;68407;55.694;26.994;2024-01-15T03:38:26;2.6;2;2
72918;PMS7003;68407;55.694;26.994;2024-01-15T03:43:09;3;2.4;2.2
72918;PMS7003;68407;55.694;26.994;2024-01-15T03:48:20;4.4;3;2.4
72918;PMS7003;68407;55.694;26.994;2024-01-15T03:52:34;2.2;2;1.8
72918;PMS7003;68407;55.694;26.994;2024-01-15T03:57:52;2.2;1.8;1.6
72918;PMS7003;68407;55.694;26.994;2024-01-15T04:02:34;3.2;2.2;1.8
72918;PMS7003;68407;55.694;26.994;2024-01-15T04:07:54;2.6;2.2;2
72918;PMS7003;68407;55.694;26.994;2024-01-15T04:13:00;1.6;1.4;1
72918;PMS7003;68407;55.694;26.994;2024-01-15T04:18:05;2.5;1.8;1.8
72918;PMS7003;68407;55.694;26.994;2024-01-15T04:22:48;3;2;1.8
72918;PMS7003;68407;55.694;26.994;2024-01-15T04:28:24;2.6;1.4;1
72918;PMS7003;68407;55.694;26.994;2024-01-15T04:33:10;2.4;1.8;1.2
72918;PMS7003;68407;55.694;26.994;2024-01-15T04:37:50;1.4;1;1
72918;PMS7003;68407;55.694;26.994;2024-01-15T04:42:53;1.8;1;0.6
72918;PMS7003;68407;55.694;26.994;2024-01-15T04:48:04;1.2;1;0.6
72918;PMS7003;68407;55.694;26.994;2024-01-15T04:53:14;1.2;1.2;0.6
72918;PMS7003;68407;55.694;26.994;2024-01-15T04:57:54;1.6;1.2;1.2
72918;PMS7003;68407;55.694;26.994;2024-01-15T05:03:12;1.2;0.6;0.6
72918;PMS7003;68407;55.694;26.994;2024-01-15T05:08:24;1;0.6;0.4
72918;PMS7003;68407;55.694;26.994;2024-01-15T05:13:25;1.4;0.6;0.4
72918;PMS7003;68407;55.694;26.994;2024-01-15T05:18:00;1.8;0.8;0.6
72918;PMS7003;68407;55.694;26.994;2024-01-15T05:23:25;0.8;0.8;0.8
72918;PMS7003;68407;55.694;26.994;2024-01-15T05:27:35;1;0.8;0.8
72918;PMS7003;68407;55.694;26.994;2024-01-15T05:32:35;1;0.4;0.4
72918;PMS7003;68407;55.694;26.994;2024-01-15T05:37:35;1.4;1;0.8
72918;PMS7003;68407;55.694;26.994;2024-01-15T05:42:55;0.6;0.4;0.4
72918;PMS7003;68407;55.694;26.994;2024-01-15T05:47:35;0.8;0.4;0.4
72918;PMS7003;68407;55.694;26.994;2024-01-15T05:52:35;0.6;0.6;0.6
72918;PMS7003;68407;55.694;26.994;2024-01-15T05:58:11;1.6;0.6;0.4
72918;PMS7003;68407;55.694;26.994;2024-01-15T06:03:25;0.6;0.6;0.4
72918;PMS7003;68407;55.694;26.994;2024-01-15T06:08:24;0.4;0.2;0.2
72918;PMS7003;68407;55.694;26.994;2024-01-15T06:12:51;1.2;0.8;0.6
72918;PMS7003;68407;55.694;26.994;2024-01-15T06:18:03;1;0.8;0.6
72918;PMS7003;68407;55.694;26.994;2024-01-15T06:23:23;1.3;0.5;0.3
72918;PMS7003;68407;55.694;26.994;2024-01-15T06:28:13;1.4;1;1
72918;PMS7003;68407;55.694;26.994;2024-01-15T06:32:55;1.6;1;0.8
72918;PMS7003;68407;55.694;26.994;2024-01-15T06:38:05;1.8;1.2;0.8
72918;PMS7003;68407;55.694;26.994;2024-01-15T06:42:55;1.6;1;0.8
72918;PMS7003;68407;55.694;26.994;2024-01-15T06:48:25;1.2;1;0.8
72918;PMS7003;68407;55.694;26.994;2024-01-15T06:52:35;2.4;1.4;1.4
72918;PMS7003;68407;55.694;26.994;2024-01-15T06:58:26;1.8;1.4;1
72918;PMS7003;68407;55.694;26.994;2024-01-15T07:02:35;2.6;1.8;1.6
72918;PMS7003;68407;55.694;26.994;2024-01-15T07:08:11;2.4;1.8;1.4
72918;PMS7003;68407;55.694;26.994;2024-01-15T07:12:57;2.4;2;1.6
72918;PMS7003;68407;55.694;26.994;2024-01-15T07:17:44;3.2;3.2;2.6
72918;PMS7003;68407;55.694;26.994;2024-01-15T07:22:42;3;2.3;1.8
72918;PMS7003;68407;55.694;26.994;2024-01-15T07:27:35;2.8;2.2;1.8
72918;PMS7003;68407;55.694;26.994;2024-01-15T07:32:55;3.4;2.8;2.2
72918;PMS7003;68407;55.694;26.994;2024-01-15T07:37:51;3.2;2.6;2.2
72918;PMS7003;68407;55.694;26.994;2024-01-15T07:43:23;3.6;3.2;2.4
72918;PMS7003;68407;55.694;26.994;2024-01-15T07:48:23;4.4;3.6;3
72918;PMS7003;68407;55.694;26.994;2024-01-15T07:53:25;4.6;2.6;2.2
72918;PMS7003;68407;55.694;26.994;2024-01-15T07:58:23;3;2.6;1.8
72918;PMS7003;68407;55.694;26.994;2024-01-15T08:03:15;2.6;2.6;1.8
72918;PMS7003;68407;55.694;26.994;2024-01-15T08:07:35;3.6;2.8;2.4
72918;PMS7003;68407;55.694;26.994;2024-01-15T08:13:05;2.8;2;1.8
72918;PMS7003;68407;55.694;26.994;2024-01-15T08:18:25;3.2;2;2
72918;PMS7003;68407;55.694;26.994;2024-01-15T08:23:25;3;2.3;1.8
72918;PMS7003;68407;55.694;26.994;2024-01-15T08:27:51;3;2.6;2
72918;PMS7003;68407;55.694;26.994;2024-01-15T08:33:23;3.6;2.4;2
72918;PMS7003;68407;55.694;26.994;2024-01-15T08:38:23;3.6;2.8;2
72918;PMS7003;68407;55.694;26.994;2024-01-15T08:43:09;2.2;1.8;1.2
72918;PMS7003;68407;55.694;26.994;2024-01-15T08:48:25;3;1.6;1.6
72918;PMS7003;68407;55.694;26.994;2024-01-15T08:52:44;3.4;2.4;1.6
72918;PMS7003;68407;55.694;26.994;2024-01-15T08:57:55;3;2.2;1.6
72918;PMS7003;68407;55.694;26.994;2024-01-15T09:02:43;3;2;1.8
72918;PMS7003;68407;55.694;26.994;2024-01-15T09:07:35;4;2.4;1.8
72918;PMS7003;68407;55.694;26.994;2024-01-15T09:12:36;3.8;2.4;2
72918;PMS7003;68407;55.694;26.994;2024-01-15T09:18:05;3.6;3.2;2.4
72918;PMS7003;68407;55.694;26.994;2024-01-15T09:22:35;3.3;2.8;2
72918;PMS7003;68407;55.694;26.994;2024-01-15T09:28:25;2.4;2.2;2
72918;PMS7003;68407;55.694;26.994;2024-01-15T09:33:11;3.8;3.6;3
72918;PMS7003;68407;55.694;26.994;2024-01-15T09:37:35;5;4;3
72918;PMS7003;68407;55.694;26.994;2024-01-15T09:42:43;4.6;3.4;2.4
72918;PMS7003;68407;55.694;26.994;2024-01-15T09:48:05;5.4;4;2.8
72918;PMS7003;68407;55.694;26.994;2024-01-15T09:53:15;5;3.8;2.6
72918;PMS7003;68407;55.694;26.994;2024-01-15T09:57:35;5.4;4;3
72918;PMS7003;68407;55.694;26.994;2024-01-15T10:03:01;5.4;4.6;3.2
72918;PMS7003;68407;55.694;26.994;2024-01-15T10:08:25;4.6;4;3.2
72918;PMS7003;68407;55.694;26.994;2024-01-15T10:13:23;4.8;4;3
72918;PMS7003;68407;55.694;26.994;2024-01-15T10:18:01;7;5.2;3.8
72918;PMS7003;68407;55.694;26.994;2024-01-15T10:23:14;4.8;4.4;3.6
72918;PMS7003;68407;55.694;26.994;2024-01-15T10:28:01;6.5;4.8;3.8
72918;PMS7003;68407;55.694;26.994;2024-01-15T10:32:35;6.2;4.8;2.8
72918;PMS7003;68407;55.694;26.994;2024-01-15T10:38:13;5.2;4.4;3.4
72918;PMS7003;68407;55.694;26.994;2024-01-15T10:42:35;5.6;4.8;4
72918;PMS7003;68407;55.694;26.994;2024-01-15T10:47:43;4.8;4.2;3.4
72918;PMS7003;68407;55.694;26.994;2024-01-15T10:52:43;5.2;4;2.8
72918;PMS7003;68407;55.694;26.994;2024-01-15T10:58:11;6.4;4.4;3.6
72918;PMS7003;68407;55.694;26.994;2024-01-15T11:03:25;4;3.6;2.6
72918;PMS7003;68407;55.694;26.994;2024-01-15T11:08:25;6.2;4;3.8
72918;PMS7003;68407;55.694;26.994;2024-01-15T11:12:51;7;4.8;3.4
72918;PMS7003;68407;55.694;26.994;2024-01-15T11:18:05;4.4;3.6;3
72918;PMS7003;68407;55.694;26.994;2024-01-15T11:23:38;5.8;4;3
72918;PMS7003;68407;55.694;26.994;2024-01-15T11:28:13;4.5;4;3.3
72918;PMS7003;68407;55.694;26.994;2024-01-15T11:32:55;6;4.2;3.2
72918;PMS7003;68407;55.694;26.994;2024-01-15T11:38:05;6.2;4.6;4
72918;PMS7003;68407;55.694;26.994;2024-01-15T11:43:05;5.8;4.8;4
72918;PMS7003;68407;55.694;26.994;2024-01-15T11:48:23;7;4.6;3.4
72918;PMS7003;68407;55.694;26.994;2024-01-15T11:52:59;5.8;4.6;3.6
72918;PMS7003;68407;55.694;26.994;2024-01-15T11:58:23;7.2;5;3.6
72918;PMS7003;68407;55.694;26.994;2024-01-15T12:02:59;6.6;4.8;3.8
72918;PMS7003;68407;55.694;26.994;2024-01-15T12:07:39;6.6;4.8;3.6
72918;PMS7003;68407;55.694;26.994;2024-01-15T12:12:37;6.4;4.6;3.8
72918;PMS7003;68407;55.694;26.994;2024-01-15T12:17:41;6.2;4.8;4
72918;PMS7003;68407;55.694;26.994;2024-01-15T12:22:51;5.4;4.4;3.6
72918;PMS7003;68407;55.694;26.994;2024-01-15T12:27:35;5.3;4.5;3.5
72918;PMS7003;68407;55.694;26.994;2024-01-15T12:32:35;5.8;4.4;3.4
72918;PMS7003;68407;55.694;26.994;2024-01-15T12:37:43;4.4;3.6;3.2
72918;PMS7003;68407;55.694;26.994;2024-01-15T12:42:47;5.8;4.2;3.4
72918;PMS7003;68407;55.694;26.994;2024-01-15T12:47:51;6;5.2;4
72918;PMS7003;68407;55.694;26.994;2024-01-15T12:53:23;5.8;4;2.8
72918;PMS7003;68407;55.694;26.994;2024-01-15T12:58:09;5.6;4.6;3.4
72918;PMS7003;68407;55.694;26.994;2024-01-15T13:03:23;5.8;4.4;3.6
72918;PMS7003;68407;55.694;26.994;2024-01-15T13:07:55;6;4.8;3.8
72918;PMS7003;68407;55.694;26.994;2024-01-15T13:13:05;6.2;5.4;4
72918;PMS7003;68407;55.694;26.994;2024-01-15T13:18:23;5.6;5.2;4.2
72918;PMS7003;68407;55.694;26.994;2024-01-15T13:23:05;8.4;6.2;4.8
72918;PMS7003;68407;55.694;26.994;2024-01-15T13:27:59;6;5;4
72918;PMS7003;68407;55.694;26.994;2024-01-15T13:33:23;9.4;7;5.2
72918;PMS7003;68407;55.694;26.994;2024-01-15T13:38:19;9;7.6;5.6
72918;PMS7003;68407;55.694;26.994;2024-01-15T13:43:07;8.8;6.8;4.8
72918;PMS7003;68407;55.694;26.994;2024-01-15T13:48:23;9.2;7.4;5.4
72918;PMS7003;68407;55.694;26.994;2024-01-15T13:52:43;8.2;7.2;5.4
72918;PMS7003;68407;55.694;26.994;2024-01-15T13:57:43;9.6;7.4;5.4
72918;PMS7003;68407;55.694;26.994;2024-01-15T14:02:35;7.6;6.4;4.6
72918;PMS7003;68407;55.694;26.994;2024-01-15T14:07:43;9.2;7.6;5.4
72918;PMS7003;68407;55.694;26.994;2024-01-15T14:13:15;6.8;6.2;4
72918;PMS7003;68407;55.694;26.994;2024-01-15T14:18:05;8.6;6.2;5
72918;PMS7003;68407;55.694;26.994;2024-01-15T14:22:51;9;6.8;5.2
72918;PMS7003;68407;55.694;26.994;2024-01-15T14:28:23;6;5.8;5
72918;PMS7003;68407;55.694;26.994;2024-01-15T14:32:37;7.6;5.4;4.4
72918;PMS7003;68407;55.694;26.994;2024-01-15T14:38:13;8.4;6.4;4.4
72918;PMS7003;68407;55.694;26.994;2024-01-15T14:42:49;8.4;6.2;4.8
72918;PMS7003;68407;55.694;26.994;2024-01-15T14:48:23;10.4;7.4;5.4
72918;PMS7003;68407;55.694;26.994;2024-01-15T14:53:23;8;7;5
72918;PMS7003;68407;55.694;26.994;2024-01-15T14:58:09;10.4;8;5.4
72918;PMS7003;68407;55.694;26.994;2024-01-15T15:03:23;8.8;6.4;5
72918;PMS7003;68407;55.694;26.994;2024-01-15T15:07:35;9.6;7;5.2
72918;PMS7003;68407;55.694;26.994;2024-01-15T15:12:35;9.8;8;5.8
72918;PMS7003;68407;55.694;26.994;2024-01-15T15:17:43;10;8;6
72918;PMS7003;68407;55.694;26.994;2024-01-15T15:22:35;9.4;7.8;5.6
72918;PMS7003;68407;55.694;26.994;2024-01-15T15:27:57;11.2;8.8;6
72918;PMS7003;68407;55.694;26.994;2024-01-15T15:33:23;10.5;9.5;6.5
72918;PMS7003;68407;55.694;26.994;2024-01-15T15:37:51;11.4;9.6;6.6
72918;PMS7003;68407;55.694;26.994;2024-01-15T15:43:23;10.8;9.4;7
72918;PMS7003;68407;55.694;26.994;2024-01-15T15:48:09;9.4;7.2;5.8
72918;PMS7003;68407;55.694;26.994;2024-01-15T15:52:51;11.4;8;6.2
72918;PMS7003;68407;55.694;26.994;2024-01-15T15:58:13;9;8;6
72918;PMS7003;68407;55.694;26.994;2024-01-15T16:02:57;9.8;8.2;6
72918;PMS7003;68407;55.694;26.994;2024-01-15T16:07:57;10.4;7.4;6
72918;PMS7003;68407;55.694;26.994;2024-01-15T16:12:47;10.2;8.2;6
72918;PMS7003;68407;55.694;26.994;2024-01-15T16:18:13;8.6;7.4;5.4
72918;PMS7003;68407;55.694;26.994;2024-01-15T16:23:09;9.6;8;6.4
72918;PMS7003;68407;55.694;26.994;2024-01-15T16:28:23;9.6;8.2;6.2
72918;PMS7003;68407;55.694;26.994;2024-01-15T16:32:35;9.5;8;6
72918;PMS7003;68407;55.694;26.994;2024-01-15T16:38:13;9;6.8;5.2
72918;PMS7003;68407;55.694;26.994;2024-01-15T16:42:59;8.6;7.8;5.6
72918;PMS7003;68407;55.694;26.994;2024-01-15T16:47:55;10.2;8.2;6.4
72918;PMS7003;68407;55.694;26.994;2024-01-15T16:52:59;11.4;8.6;5.8
72918;PMS7003;68407;55.694;26.994;2024-01-15T16:57:35;11.4;8.4;5.4
72918;PMS7003;68407;55.694;26.994;2024-01-15T17:02:43;8.4;7.2;5.4
72918;PMS7003;68407;55.694;26.994;2024-01-15T17:07:35;8.4;5.8;4.4
72918;PMS7003;68407;55.694;26.994;2024-01-15T17:12:39;4.4;3.4;2.6
72918;PMS7003;68407;55.694;26.994;2024-01-15T17:18:23;4.2;3;2.4
72918;PMS7003;68407;55.694;26.994;2024-01-15T17:23:23;3.8;3.2;2.2
72918;PMS7003;68407;55.694;26.994;2024-01-15T17:27:35;3.6;3;2.2
72918;PMS7003;68407;55.694;26.994;2024-01-15T17:33:03;4;3;2.8
72918;PMS7003;68407;55.694;26.994;2024-01-15T17:38:23;3.2;2.6;2
72918;PMS7003;68407;55.694;26.994;2024-01-15T17:43:13;3.6;3;2.2
72918;PMS7003;68407;55.694;26.994;2024-01-15T17:48:05;3.6;2.6;2.2
72918;PMS7003;68407;55.694;26.994;2024-01-15T17:53:05;2.8;2;1.8
72918;PMS7003;68407;55.694;26.994;2024-01-15T17:57:55;2.6;2;1.8
72918;PMS7003;68407;55.694;26.994;2024-01-15T18:03:23;2.6;1.4;1
72918;PMS7003;68407;55.694;26.994;2024-01-15T18:07:59;3.6;2;1.6
72918;PMS7003;68407;55.694;26.994;2024-01-15T18:13:15;2.2;2;1.6
72918;PMS7003;68407;55.694;26.994;2024-01-15T18:17:59;2;1.8;1.4
72918;PMS7003;68407;55.694;26.994;2024-01-15T18:22:53;3.2;1.8;1.4
72918;PMS7003;68407;55.694;26.994;2024-01-15T18:27:49;2.8;2;1.6
72918;PMS7003;68407;55.694;26.994;2024-01-15T18:32:35;4;2.8;2.3
72918;PMS7003;68407;55.694;26.994;2024-01-15T18:37:35;3;2.6;2.6
72918;PMS7003;68407;55.694;26.994;2024-01-15T18:42:33;4.2;2.6;2
72918;PMS7003;68407;55.694;26.994;2024-01-15T18:47:55;4.6;3.2;2.4
72918;PMS7003;68407;55.694;26.994;2024-01-15T18:52:51;3.6;2.4;2.2
72918;PMS7003;68407;55.694;26.994;2024-01-15T18:58:23;4.2;2.8;2.2
72918;PMS7003;68407;55.694;26.994;2024-01-15T19:02:43;3.2;3;2.2
72918;PMS7003;68407;55.694;26.994;2024-01-15T19:08:05;3.6;3.2;2.6
72918;PMS7003;68407;55.694;26.994;2024-01-15T19:12:43;5.2;4;3.2
72918;PMS7003;68407;55.694;26.994;2024-01-15T19:17:55;4.8;3.6;3
72918;PMS7003;68407;55.694;26.994;2024-01-15T19:22:33;4.2;3.4;2.6
72918;PMS7003;68407;55.694;26.994;2024-01-15T19:28:03;7.6;4.8;3.4
72918;PMS7003;68407;55.694;26.994;2024-01-15T19:33:19;4;3;2.3
72918;PMS7003;68407;55.694;26.994;2024-01-15T19:38:19;6.8;5.2;4
72918;PMS7003;68407;55.694;26.994;2024-01-15T19:42:55;4.6;3.8;3.4
72918;PMS7003;68407;55.694;26.994;2024-01-15T19:48:19;5.8;4.8;4
72918;PMS7003;68407;55.694;26.994;2024-01-15T19:52:33;6.4;5;3.6
72918;PMS7003;68407;55.694;26.994;2024-01-15T19:58:05;6.2;4.2;3.6
72918;PMS7003;68407;55.694;26.994;2024-01-15T20:02:55;5.6;4.6;3.2
72918;PMS7003;68407;55.694;26.994;2024-01-15T20:07:49;4.8;4;3
72918;PMS7003;68407;55.694;26.994;2024-01-15T20:12:35;5.4;4.6;3.4
72918;PMS7003;68407;55.694;26.994;2024-01-15T20:17:51;5;3.8;3
72918;PMS7003;68407;55.694;26.994;2024-01-15T20:22:41;4.8;3.6;2.8
72918;PMS7003;68407;55.694;26.994;2024-01-15T20:27:41;4;3.2;2.4
72918;PMS7003;68407;55.694;26.994;2024-01-15T20:33:17;4.4;4;2.8
72918;PMS7003;68407;55.694;26.994;2024-01-15T20:37:51;4.5;3.5;2.8
72918;PMS7003;68407;55.694;26.994;2024-01-15T20:43:19;5.8;4.4;4
72918;PMS7003;68407;55.694;26.994;2024-01-15T20:48:11;6.6;4.6;3.4
72918;PMS7003;68407;55.694;26.994;2024-01-15T20:53:09;6.8;4.8;3.4
72918;PMS7003;68407;55.694;26.994;2024-01-15T20:57:53;6.2;4.8;4
72918;PMS7003;68407;55.694;26.994;2024-01-15T21:03:03;6.8;5.6;5
72918;PMS7003;68407;55.694;26.994;2024-01-15T21:08:19;8;6.8;4.8
72918;PMS7003;68407;55.694;26.994;2024-01-15T21:13:19;8.4;6.8;5.2
72918;PMS7003;68407;55.694;26.994;2024-01-15T21:17:55;7.6;6.4;5
72918;PMS7003;68407;55.694;26.994;2024-01-15T21:23:19;8.8;7.8;5.6
72918;PMS7003;68407;55.694;26.994;2024-01-15T21:28:21;9.6;7.6;6
72918;PMS7003;68407;55.694;26.994;2024-01-15T21:33:05;9.8;7.4;6
72918;PMS7003;68407;55.694;26.994;2024-01-15T21:38:21;9.5;7.5;6
72918;PMS7003;68407;55.694;26.994;2024-01-15T21:42:33;8;7;5.2
72918;PMS7003;68407;55.694;26.994;2024-01-15T21:47:43;10;7.8;6.2
72918;PMS7003;68407;55.694;26.994;2024-01-15T21:52:41;11.4;9;6
72918;PMS7003;68407;55.694;26.994;2024-01-15T21:57:41;10.2;9;6.4
72918;PMS7003;68407;55.694;26.994;2024-01-15T22:02:41;12.2;8.8;6
72918;PMS7003;68407;55.694;26.994;2024-01-15T22:08:05;9;7.2;5.4
72918;PMS7003;68407;55.694;26.994;2024-01-15T22:12:49;11.4;7.4;5.8
72918;PMS7003;68407;55.694;26.994;2024-01-15T22:18:19;10.8;8;6
72918;PMS7003;68407;55.694;26.994;2024-01-15T22:22:57;10.6;7.8;5.2
72918;PMS7003;68407;55.694;26.994;2024-01-15T22:27:41;10.6;8.2;6.2
72918;PMS7003;68407;55.694;26.994;2024-01-15T22:32:33;11.6;8;6
72918;PMS7003;68407;55.694;26.994;2024-01-15T22:37:51;12.8;9.3;6.8
72918;PMS7003;68407;55.694;26.994;2024-01-15T22:43:09;11.6;9.6;6.2
72918;PMS7003;68407;55.694;26.994;2024-01-15T22:47:33;11.8;9;6.8
72918;PMS7003;68407;55.694;26.994;2024-01-15T22:53:11;12.2;10;7.2
72918;PMS7003;68407;55.694;26.994;2024-01-15T22:58:05;11.6;9.8;6.4
72918;PMS7003;68407;55.694;26.994;2024-01-15T23:03:19;10.6;9.2;6.8
72918;PMS7003;68407;55.694;26.994;2024-01-15T23:07:55;11.2;8.6;6.8
72918;PMS7003;68407;55.694;26.994;2024-01-15T23:13:09;10;9;6.4
72918;PMS7003;68407;55.694;26.994;2024-01-15T23:17:55;12;9.4;6.2
72918;PMS7003;68407;55.694;26.994;2024-01-15T23:22:45;10;8.2;6.2
72918;PMS7003;68407;55.694;26.994;2024-01-15T23:27:55;8.8;7.4;5.4
72918;PMS7003;68407;55.694;26.994;2024-01-15T23:32:45;8.2;6.4;5.2
72918;PMS7003;68407;55.694;26.994;2024-01-15T23:37:47;9.5;7.3;5.3
72918;PMS7003;68407;55.694;26.994;2024-01-15T23:42:51;7;6.8;5
72918;PMS7003;68407;55.694;26.994;2024-01-15T23:48:07;8;6.4;5
72918;PMS7003;68407;55.694;26.994;2024-01-15T23:53:19;9.2;7.2;5.8
72918;PMS7003;68407;55.694;26.994;2024-01-15T23:58:19;7.6;6.2;4.4
